Time;durP1;ratioP1;P1;durP2;ratioP2;P2;SDS_P1;SDS_P2;PMS_P1;PMS_P2;Temp;Humidity;BMP_temperature;BMP_pressure;BME280_temperature;BME280_humidity;BME280_pressure;Samples;Min_cycle;Max_cycle;Signal;HPM_P1;HPM_P2
2021/08/31 00:00:06;;;;;;;8.10;6.00;;;15.00;99.90;;;;;;4991926;28;20842;-72
2021/08/31 00:02:34;;;;;;;13.00;7.53;;;15.00;99.90;;;;;;4992114;28;20840;-71
2021/08/31 00:05:02;;;;;;;7.23;6.40;;;15.00;99.90;;;;;;4992229;28;20443;-71
2021/08/31 00:07:30;;;;;;;11.73;7.20;;;15.00;99.90;;;;;;4991769;28;20975;-71
2021/08/31 00:09:58;;;;;;;6.77;6.00;;;15.00;99.90;;;;;;4992103;28;20832;-71
2021/08/31 00:12:27;;;;;;;11.23;7.90;;;15.00;99.90;;;;;;4993194;28;20788;-70
2021/08/31 00:14:55;;;;;;;7.53;6.70;;;15.00;99.90;;;;;;4996050;28;20484;-70
2021/08/31 00:17:24;;;;;;;10.43;7.60;;;15.00;99.90;;;;;;4995433;28;20789;-72
2021/08/31 00:19:52;;;;;;;10.20;6.80;;;14.90;99.90;;;;;;4995499;28;20435;-71
2021/08/31 00:22:20;;;;;;;7.60;6.80;;;15.00;99.90;;;;;;4995495;28;20404;-71
2021/08/31 00:24:48;;;;;;;8.13;7.33;;;15.00;99.90;;;;;;4995834;28;20475;-71
2021/08/31 00:27:16;;;;;;;16.73;8.67;;;14.90;99.90;;;;;;4995309;28;20548;-71
2021/08/31 00:29:45;;;;;;;10.87;8.13;;;14.90;99.90;;;;;;4995566;28;20957;-70
2021/08/31 00:32:13;;;;;;;10.60;8.50;;;14.90;99.90;;;;;;4995067;28;20425;-71
2021/08/31 00:34:41;;;;;;;8.80;7.20;;;14.90;99.90;;;;;;4995487;28;20405;-71
2021/08/31 00:37:09;;;;;;;10.50;8.60;;;14.90;99.90;;;;;;4995112;28;20467;-71
2021/08/31 00:39:37;;;;;;;12.50;9.97;;;14.90;99.90;;;;;;4995226;28;20915;-71
2021/08/31 00:42:06;;;;;;;11.90;9.67;;;14.90;99.90;;;;;;4995600;28;20401;-71
2021/08/31 00:44:34;;;;;;;14.03;9.30;;;14.90;99.90;;;;;;4995435;28;20397;-71
2021/08/31 00:47:04;;;;;;;11.03;9.70;;;14.90;99.90;;;;;;4995298;28;20417;-71
2021/08/31 00:49:33;;;;;;;12.87;9.87;;;14.90;99.90;;;;;;4995303;28;20789;-71
2021/08/31 00:52:02;;;;;;;10.40;8.60;;;14.90;99.90;;;;;;4995300;28;20459;-71
2021/08/31 00:54:31;;;;;;;10.60;8.53;;;14.80;99.90;;;;;;4993745;28;20441;-71
2021/08/31 00:57:00;;;;;;;15.13;7.10;;;14.80;99.90;;;;;;4995531;28;20428;-71
2021/08/31 00:59:28;;;;;;;11.10;6.90;;;14.80;99.90;;;;;;4995187;28;20541;-70
2021/08/31 01:01:57;;;;;;;10.17;7.27;;;14.80;99.90;;;;;;4995872;28;20434;-72
2021/08/31 01:04:28;;;;;;;10.90;8.33;;;14.80;99.90;;;;;;4995450;28;20438;-70
2021/08/31 01:06:59;;;;;;;7.57;6.50;;;14.80;99.90;;;;;;4995265;28;20870;-70
2021/08/31 01:09:28;;;;;;;8.67;6.97;;;14.70;99.90;;;;;;4994744;28;20426;-70
2021/08/31 01:11:57;;;;;;;10.37;8.70;;;14.70;99.90;;;;;;4994573;28;20453;-70
2021/08/31 01:14:27;;;;;;;13.90;9.50;;;14.70;99.90;;;;;;4994622;28;20818;-71
2021/08/31 01:16:55;;;;;;;9.63;8.67;;;14.70;99.90;;;;;;4994467;28;20574;-71
2021/08/31 01:19:29;;;;;;;13.73;11.30;;;14.70;99.90;;;;;;4994395;28;20493;-71
2021/08/31 01:21:59;;;;;;;13.83;8.70;;;14.80;99.90;;;;;;4994667;28;20807;-71
2021/08/31 01:24:27;;;;;;;12.67;9.33;;;14.80;99.90;;;;;;4993629;28;20438;-71
2021/08/31 01:26:58;;;;;;;12.30;7.53;;;14.80;99.90;;;;;;4994548;28;20444;-70
2021/08/31 01:29:27;;;;;;;10.20;7.50;;;14.80;99.90;;;;;;4994548;28;20488;-70
2021/08/31 01:31:56;;;;;;;9.50;8.00;;;14.80;99.90;;;;;;4994859;28;20451;-70
2021/08/31 01:34:24;;;;;;;8.80;7.87;;;14.80;99.90;;;;;;4994794;28;20447;-71
2021/08/31 01:36:52;;;;;;;12.20;11.00;;;14.80;99.90;;;;;;4994094;28;20477;-71
2021/08/31 01:39:20;;;;;;;11.23;7.60;;;14.70;99.90;;;;;;4994681;28;20433;-71
2021/08/31 01:41:50;;;;;;;11.17;8.03;;;14.70;99.90;;;;;;4994181;28;20447;-72
2021/08/31 01:44:19;;;;;;;10.80;8.07;;;14.70;99.90;;;;;;4994048;28;20447;-69
2021/08/31 01:46:47;;;;;;;12.10;8.77;;;14.70;99.90;;;;;;4993737;28;20467;-72
2021/08/31 01:49:15;;;;;;;9.17;8.20;;;14.70;99.90;;;;;;4993999;28;20426;-70
2021/08/31 01:51:43;;;;;;;13.33;8.57;;;14.70;99.90;;;;;;4993974;28;20895;-70
2021/08/31 01:54:12;;;;;;;10.50;7.90;;;14.70;99.90;;;;;;4993867;28;20455;-70
2021/08/31 01:56:40;;;;;;;13.67;9.10;;;14.70;99.90;;;;;;4993699;28;20469;-70
2021/08/31 01:59:08;;;;;;;11.30;8.27;;;14.70;99.90;;;;;;4993655;28;20434;-70
2021/08/31 02:01:39;;;;;;;7.93;7.13;;;14.70;99.90;;;;;;4993663;28;20853;-71
2021/08/31 02:04:07;;;;;;;10.07;7.20;;;14.70;99.90;;;;;;4993870;28;20898;-70
2021/08/31 02:06:35;;;;;;;8.70;7.80;;;14.70;99.90;;;;;;4993588;28;20459;-70
2021/08/31 02:09:04;;;;;;;10.03;8.30;;;14.60;99.90;;;;;;4993690;28;20436;-71
2021/08/31 02:11:32;;;;;;;10.40;9.00;;;14.60;99.90;;;;;;4992290;28;20411;-71
2021/08/31 02:14:00;;;;;;;8.30;7.50;;;14.60;99.90;;;;;;4993566;28;20411;-71
2021/08/31 02:16:28;;;;;;;10.00;8.03;;;14.60;99.90;;;;;;4993341;28;20420;-71
2021/08/31 02:18:57;;;;;;;12.70;9.97;;;14.60;99.90;;;;;;4993748;28;20975;-73
2021/08/31 02:21:25;;;;;;;17.30;8.77;;;14.60;99.90;;;;;;4998781;28;20444;-71
2021/08/31 02:23:53;;;;;;;12.23;8.50;;;14.50;99.90;;;;;;5006106;28;20469;-71
2021/08/31 02:26:21;;;;;;;13.40;10.37;;;14.40;99.90;;;;;;5001829;28;20448;-71
2021/08/31 02:28:49;;;;;;;11.87;9.03;;;14.40;99.90;;;;;;5006977;28;20414;-72
2021/08/31 02:31:17;;;;;;;18.20;9.77;;;14.40;99.90;;;;;;4994656;28;20440;-70
2021/08/31 02:33:45;;;;;;;11.23;9.03;;;14.30;99.90;;;;;;4994428;28;20835;-71
2021/08/31 02:36:14;;;;;;;12.20;9.10;;;14.30;99.90;;;;;;4992836;28;20793;-70
2021/08/31 02:38:42;;;;;;;15.03;9.43;;;14.30;99.90;;;;;;4993838;28;20401;-72
2021/08/31 02:41:11;;;;;;;11.80;8.67;;;14.30;99.90;;;;;;4993664;28;20433;-71
2021/08/31 02:43:39;;;;;;;11.23;9.07;;;14.40;99.90;;;;;;4993309;28;20698;-70
2021/08/31 02:46:07;;;;;;;11.13;8.33;;;14.40;99.90;;;;;;4992923;28;21070;-70
2021/08/31 02:48:35;;;;;;;9.73;8.73;;;14.40;99.90;;;;;;4992965;28;20696;-70
2021/08/31 02:51:03;;;;;;;11.00;8.47;;;14.40;99.90;;;;;;4992753;28;20401;-70
2021/08/31 02:53:32;;;;;;;11.60;9.60;;;14.40;99.90;;;;;;4992645;28;20925;-70
2021/08/31 02:56:00;;;;;;;14.83;9.27;;;14.40;99.90;;;;;;4992273;28;20439;-71
2021/08/31 02:58:28;;;;;;;12.93;9.90;;;14.40;99.90;;;;;;4993068;28;20393;-71
2021/08/31 03:01:05;;;;;;;12.97;9.97;;;14.50;99.90;;;;;;4992585;28;20535;-70
2021/08/31 03:03:33;;;;;;;13.90;9.10;;;14.50;99.90;;;;;;4992882;28;20788;-71
2021/08/31 03:06:01;;;;;;;11.00;9.13;;;14.50;99.90;;;;;;4992406;28;20435;-70
2021/08/31 03:08:30;;;;;;;12.70;9.03;;;14.40;99.90;;;;;;5039860;23;20510;-71
2021/08/31 03:10:59;;;;;;;12.40;7.83;;;14.40;99.90;;;;;;5031933;28;20694;-72
2021/08/31 03:13:27;;;;;;;10.73;9.43;;;14.40;99.90;;;;;;5032100;28;20459;-72
2021/08/31 03:15:55;;;;;;;12.77;9.30;;;14.40;99.90;;;;;;5031804;28;20394;-71
2021/08/31 03:18:23;;;;;;;13.50;8.67;;;14.40;99.90;;;;;;5031829;28;20451;-72
2021/08/31 03:20:51;;;;;;;12.53;8.90;;;14.50;99.90;;;;;;5032071;28;20470;-72
2021/08/31 03:23:19;;;;;;;11.30;8.70;;;14.40;99.90;;;;;;5032116;28;20431;-72
2021/08/31 03:25:47;;;;;;;12.00;9.10;;;14.50;99.90;;;;;;5031691;28;20415;-72
2021/08/31 03:28:17;;;;;;;11.17;9.63;;;14.50;99.90;;;;;;5031897;28;20506;-71
2021/08/31 03:30:45;;;;;;;15.07;11.23;;;14.50;99.90;;;;;;5031627;28;20434;-71
2021/08/31 03:33:13;;;;;;;10.57;8.07;;;14.50;99.90;;;;;;5031827;28;20395;-71
2021/08/31 03:35:41;;;;;;;10.87;9.23;;;14.40;99.90;;;;;;5031527;28;20414;-71
2021/08/31 03:38:09;;;;;;;13.07;8.77;;;14.40;99.90;;;;;;5031938;28;20828;-71
2021/08/31 03:40:37;;;;;;;16.60;11.13;;;14.40;99.90;;;;;;5032053;28;20449;-71
2021/08/31 03:43:05;;;;;;;13.23;9.57;;;14.40;99.90;;;;;;5032122;28;20647;-72
2021/08/31 03:45:35;;;;;;;13.73;9.80;;;14.30;99.90;;;;;;5031779;28;20993;-72
2021/08/31 03:48:03;;;;;;;10.10;8.90;;;14.30;99.90;;;;;;5033651;28;20855;-71
2021/08/31 03:50:31;;;;;;;9.53;7.90;;;14.30;99.90;;;;;;5035647;28;20403;-71
2021/08/31 03:52:59;;;;;;;9.47;8.27;;;14.30;99.90;;;;;;5036493;28;20409;-72
2021/08/31 03:55:27;;;;;;;10.37;8.07;;;14.30;99.90;;;;;;5035762;28;20486;-72
2021/08/31 03:57:55;;;;;;;11.97;8.90;;;14.30;99.90;;;;;;5035890;28;20881;-72
2021/08/31 04:00:24;;;;;;;10.83;7.70;;;14.30;99.90;;;;;;5035300;28;20857;-73
2021/08/31 04:02:53;;;;;;;12.50;8.70;;;14.30;99.90;;;;;;5035437;28;20398;-72
2021/08/31 04:05:21;;;;;;;12.50;8.30;;;14.30;99.90;;;;;;5035641;28;20410;-72
2021/08/31 04:07:49;;;;;;;10.53;9.37;;;14.30;99.90;;;;;;5035014;28;20987;-72
2021/08/31 04:10:18;;;;;;;13.30;10.13;;;14.40;99.90;;;;;;5035281;28;20432;-72
2021/08/31 04:12:46;;;;;;;10.80;8.70;;;14.40;99.90;;;;;;5035438;28;20421;-72
2021/08/31 04:15:14;;;;;;;14.43;9.20;;;14.40;99.90;;;;;;5035285;28;20431;-72
2021/08/31 04:17:42;;;;;;;11.00;9.10;;;14.40;99.90;;;;;;5034699;28;20513;-72
2021/08/31 04:20:13;;;;;;;13.90;8.67;;;14.40;99.90;;;;;;5034948;28;20462;-72
2021/08/31 04:22:41;;;;;;;12.40;9.17;;;14.40;99.90;;;;;;5034930;28;20512;-72
2021/08/31 04:25:10;;;;;;;12.60;8.77;;;14.40;99.90;;;;;;5034812;28;20464;-72
2021/08/31 04:27:39;;;;;;;8.47;7.47;;;14.30;99.90;;;;;;5033547;28;20456;-72
2021/08/31 04:30:07;;;;;;;8.70;6.63;;;14.30;99.90;;;;;;5034200;28;20479;-71
2021/08/31 04:32:35;;;;;;;12.87;9.27;;;14.30;99.90;;;;;;5014805;28;20801;-71
2021/08/31 04:35:05;;;;;;;10.73;8.50;;;14.30;99.90;;;;;;5014912;28;20433;-71
2021/08/31 04:37:35;;;;;;;12.73;8.93;;;14.30;99.90;;;;;;5014727;28;20522;-70
2021/08/31 04:40:03;;;;;;;12.20;7.70;;;14.40;99.90;;;;;;5015018;28;20397;-72
2021/08/31 04:42:31;;;;;;;13.77;8.40;;;14.40;99.90;;;;;;5014612;28;20446;-72
2021/08/31 04:44:59;;;;;;;9.87;7.97;;;14.40;99.90;;;;;;5014787;28;20424;-71
2021/08/31 04:47:27;;;;;;;11.17;6.93;;;14.40;99.90;;;;;;5014449;28;20811;-71
2021/08/31 04:49:55;;;;;;;11.77;9.30;;;14.40;99.90;;;;;;5014634;28;20400;-71
2021/08/31 04:52:23;;;;;;;17.50;7.60;;;14.40;99.90;;;;;;5014495;28;20499;-71
2021/08/31 04:54:53;;;;;;;11.53;7.90;;;14.40;99.90;;;;;;5014392;28;20456;-71
2021/08/31 04:57:20;;;;;;;9.50;7.63;;;14.30;99.90;;;;;;5014418;28;20449;-71
2021/08/31 04:59:48;;;;;;;9.27;8.37;;;14.40;99.90;;;;;;5013416;28;20499;-71
2021/08/31 05:02:17;;;;;;;9.77;7.07;;;14.40;99.90;;;;;;5014473;28;20494;-71
2021/08/31 05:04:45;;;;;;;13.37;7.50;;;14.30;99.90;;;;;;5014405;28;20425;-71
2021/08/31 05:07:13;;;;;;;6.60;5.80;;;14.40;99.90;;;;;;5013816;28;20778;-71
2021/08/31 05:09:41;;;;;;;7.47;6.37;;;14.40;99.90;;;;;;5014398;28;20404;-72
2021/08/31 05:12:11;;;;;;;10.10;7.43;;;14.40;99.90;;;;;;5014167;28;20411;-71
2021/08/31 05:14:39;;;;;;;10.10;7.70;;;14.40;99.90;;;;;;5014262;28;20823;-70
2021/08/31 05:17:07;;;;;;;13.70;8.00;;;14.40;99.90;;;;;;5013904;28;20609;-70
2021/08/31 05:19:35;;;;;;;10.03;8.00;;;14.40;99.90;;;;;;5014401;28;20404;-77
2021/08/31 05:22:05;;;;;;;8.90;7.70;;;14.40;99.90;;;;;;5016726;28;20534;-78
2021/08/31 05:24:34;;;;;;;12.80;7.43;;;14.30;99.90;;;;;;5017992;28;20884;-77
2021/08/31 05:27:02;;;;;;;9.57;8.67;;;14.30;99.90;;;;;;5022581;28;20461;-71
2021/08/31 05:29:31;;;;;;;11.13;8.57;;;14.30;99.90;;;;;;5033835;28;20950;-78
2021/08/31 05:31:59;;;;;;;14.60;7.10;;;14.30;99.90;;;;;;5033719;28;20465;-75
2021/08/31 05:34:28;;;;;;;12.17;8.77;;;14.30;99.90;;;;;;5033429;28;20415;-70
2021/08/31 05:36:59;;;;;;;9.37;7.27;;;14.30;99.90;;;;;;5032474;28;20809;-69
2021/08/31 05:39:32;;;;;;;11.90;8.60;;;14.40;99.90;;;;;;5032996;28;20474;-70
2021/08/31 05:42:02;;;;;;;12.80;7.10;;;14.40;99.90;;;;;;5032850;28;20460;-70
2021/08/31 05:44:31;;;;;;;8.27;6.80;;;14.40;99.90;;;;;;5032992;28;20383;-71
2021/08/31 05:47:00;;;;;;;10.70;6.50;;;14.50;99.90;;;;;;5032797;28;20513;-69
2021/08/31 05:49:29;;;;;;;14.70;6.33;;;14.60;99.90;;;;;;5032921;28;20395;-70
2021/08/31 05:51:58;;;;;;;7.63;6.80;;;14.50;99.90;;;;;;5030748;28;20395;-70
2021/08/31 05:54:26;;;;;;;11.70;7.67;;;14.50;99.90;;;;;;5012860;28;20605;-70
2021/08/31 05:56:55;;;;;;;11.67;7.50;;;14.50;99.90;;;;;;5012997;28;20857;-70
2021/08/31 05:59:23;;;;;;;15.00;7.97;;;14.60;99.90;;;;;;5012819;28;20467;-70
2021/08/31 06:01:57;;;;;;;12.63;8.27;;;14.60;99.90;;;;;;5012866;28;20780;-70
2021/08/31 06:04:36;;;;;;;9.50;8.00;;;14.60;99.90;;;;;;5012878;28;20409;-70
2021/08/31 06:07:06;;;;;;;9.57;6.83;;;14.60;99.90;;;;;;5012661;28;20465;-70
2021/08/31 06:09:36;;;;;;;9.57;7.30;;;14.60;99.90;;;;;;5012667;28;20425;-69
2021/08/31 06:12:05;;;;;;;9.07;7.23;;;14.60;99.90;;;;;;5013597;28;20437;-70
2021/08/31 06:14:34;;;;;;;11.60;8.10;;;14.60;99.90;;;;;;5032591;28;20975;-70
2021/08/31 06:17:05;;;;;;;9.17;7.70;;;14.60;99.90;;;;;;5032417;28;20543;-70
2021/08/31 06:19:34;;;;;;;13.43;8.03;;;14.60;99.90;;;;;;5032097;28;20969;-70
2021/08/31 06:22:03;;;;;;;11.00;7.63;;;14.60;99.90;;;;;;5030682;28;20464;-70
2021/08/31 06:24:31;;;;;;;10.67;8.30;;;14.60;99.90;;;;;;5026572;28;20415;-70
2021/08/31 06:26:59;;;;;;;11.57;7.90;;;14.60;99.90;;;;;;5003068;28;20438;-73
2021/08/31 06:29:27;;;;;;;11.90;8.80;;;14.70;99.90;;;;;;5002915;28;20430;-74
2021/08/31 06:31:56;;;;;;;12.57;8.67;;;14.70;99.90;;;;;;4991527;28;20444;-69
2021/08/31 06:34:25;;;;;;;13.00;8.90;;;14.70;99.90;;;;;;4992551;28;20495;-69
2021/08/31 06:36:53;;;;;;;12.00;8.07;;;14.60;99.90;;;;;;4992514;28;20454;-69
2021/08/31 06:39:21;;;;;;;11.40;7.53;;;14.60;99.90;;;;;;4992917;28;20454;-70
2021/08/31 06:41:49;;;;;;;10.43;7.90;;;14.70;99.90;;;;;;4992465;28;20430;-69
2021/08/31 06:44:17;;;;;;;9.20;8.27;;;14.70;99.90;;;;;;4992592;28;20441;-70
2021/08/31 06:46:45;;;;;;;10.43;7.90;;;14.60;99.90;;;;;;4992367;28;20458;-70
2021/08/31 06:49:14;;;;;;;13.90;7.67;;;14.70;99.90;;;;;;4992516;28;20536;-70
2021/08/31 06:51:43;;;;;;;12.37;7.80;;;14.80;99.90;;;;;;4992304;28;20450;-70
2021/08/31 06:54:11;;;;;;;8.87;7.43;;;14.80;99.90;;;;;;4992726;28;20783;-70
2021/08/31 06:56:41;;;;;;;10.27;8.17;;;14.90;99.90;;;;;;4992009;28;20544;-70
2021/08/31 06:59:09;;;;;;;13.20;8.60;;;14.90;99.90;;;;;;5000335;28;20407;-70
2021/08/31 07:01:37;;;;;;;9.07;7.10;;;15.00;99.90;;;;;;5012244;28;20481;-70
2021/08/31 07:04:05;;;;;;;8.90;7.60;;;15.10;99.90;;;;;;5011756;28;21005;-70
2021/08/31 07:06:33;;;;;;;9.13;8.23;;;15.30;99.90;;;;;;5011605;28;20471;-70
2021/08/31 07:09:05;;;;;;;8.23;7.20;;;15.40;99.90;;;;;;5012421;28;20409;-71
2021/08/31 07:11:33;;;;;;;9.20;6.53;;;15.50;99.90;;;;;;5011968;28;20430;-70
2021/08/31 07:14:01;;;;;;;8.43;6.60;;;15.70;99.90;;;;;;5010558;28;20406;-71
2021/08/31 07:16:31;;;;;;;8.60;7.23;;;15.80;99.90;;;;;;4999725;28;20444;-70
2021/08/31 07:19:00;;;;;;;9.87;7.77;;;16.00;99.90;;;;;;4998976;28;20430;-70
2021/08/31 07:21:30;;;;;;;9.10;6.47;;;16.10;99.90;;;;;;4998317;28;20442;-70
2021/08/31 07:23:58;;;;;;;11.23;7.50;;;16.10;99.90;;;;;;5018430;28;20471;-70
2021/08/31 07:26:28;;;;;;;9.90;6.47;;;16.10;99.90;;;;;;5012130;28;20994;-69
2021/08/31 07:28:57;;;;;;;10.47;5.90;;;16.00;99.90;;;;;;5011860;28;20528;-70
2021/08/31 07:31:25;;;;;;;10.20;6.07;;;16.10;99.90;;;;;;5001722;28;20476;-70
2021/08/31 07:33:53;;;;;;;8.33;6.10;;;16.10;99.90;;;;;;4992085;28;20417;-70
2021/08/31 07:36:22;;;;;;;10.97;6.43;;;16.10;99.90;;;;;;5010096;28;20407;-70
2021/08/31 07:38:51;;;;;;;8.10;6.70;;;16.30;99.90;;;;;;5030981;28;21001;-69
2021/08/31 07:41:19;;;;;;;9.40;6.50;;;16.30;99.90;;;;;;5031453;28;20399;-70
2021/08/31 07:43:49;;;;;;;12.87;7.47;;;16.50;99.90;;;;;;5031303;28;20538;-70
2021/08/31 07:46:18;;;;;;;5.90;5.07;;;16.80;99.90;;;;;;5031043;28;20875;-77
2021/08/31 07:48:47;;;;;;;6.80;5.50;;;17.00;99.90;;;;;;5032575;28;20480;-76
2021/08/31 07:51:15;;;;;;;9.37;5.80;;;17.10;99.90;;;;;;5032382;28;20391;-76
2021/08/31 07:53:43;;;;;;;6.77;5.27;;;17.10;99.90;;;;;;5027590;28;20408;-77
2021/08/31 07:56:12;;;;;;;9.13;6.97;;;17.10;99.90;;;;;;5018994;28;20399;-77
2021/08/31 07:58:40;;;;;;;7.73;6.93;;;17.20;99.90;;;;;;5022721;28;20890;-79
2021/08/31 08:01:10;;;;;;;7.60;5.90;;;17.30;99.90;;;;;;5022473;28;20489;-76
2021/08/31 08:03:38;;;;;;;8.80;6.10;;;17.50;99.90;;;;;;5019752;28;20445;-74
2021/08/31 08:06:06;;;;;;;8.33;6.00;;;17.50;99.90;;;;;;5013346;28;20784;-76
2021/08/31 08:08:34;;;;;;;6.03;5.43;;;17.50;99.90;;;;;;5017681;28;20464;-76
2021/08/31 08:11:03;;;;;;;6.77;5.90;;;17.40;99.90;;;;;;5027101;28;20399;-75
2021/08/31 08:13:31;;;;;;;10.00;6.10;;;17.30;99.90;;;;;;5027454;28;20466;-76
2021/08/31 08:15:59;;;;;;;7.53;5.53;;;17.30;99.90;;;;;;5032587;28;20410;-77
2021/08/31 08:18:28;;;;;;;7.33;6.63;;;17.30;99.90;;;;;;5033502;28;20426;-76
2021/08/31 08:20:56;;;;;;;8.10;5.63;;;17.30;99.90;;;;;;5032269;28;20424;-75
2021/08/31 08:23:25;;;;;;;6.60;6.00;;;17.40;99.90;;;;;;5033221;28;20866;-76
2021/08/31 08:25:53;;;;;;;9.93;5.90;;;17.50;99.90;;;;;;5033219;28;20432;-75
2021/08/31 08:28:22;;;;;;;10.30;6.97;;;17.40;99.90;;;;;;5021492;28;20514;-74
2021/08/31 08:30:51;;;;;;;7.03;5.13;;;17.60;99.90;;;;;;5011809;28;20419;-76
2021/08/31 08:33:19;;;;;;;7.00;6.10;;;17.40;99.90;;;;;;5004003;28;20779;-72
2021/08/31 08:35:49;;;;;;;6.40;5.33;;;17.20;99.90;;;;;;4995299;28;20429;-75
2021/08/31 08:38:18;;;;;;;9.10;6.77;;;17.10;99.90;;;;;;4995501;28;20451;-75
2021/08/31 08:40:47;;;;;;;10.77;9.70;;;17.00;99.90;;;;;;4995138;28;20432;-76
2021/08/31 08:43:16;;;;;;;7.30;5.97;;;16.90;99.90;;;;;;4995084;28;20426;-74
2021/08/31 08:45:46;;;;;;;7.97;7.17;;;16.90;99.90;;;;;;4994856;28;20614;-74
2021/08/31 08:48:23;;;;;;;7.63;5.60;;;17.10;99.90;;;;;;4994686;28;20496;-75
2021/08/31 08:50:55;;;;;;;7.80;6.50;;;17.40;99.90;;;;;;4994819;28;20462;-74
2021/08/31 08:53:25;;;;;;;6.80;6.20;;;17.60;99.90;;;;;;5000790;28;20399;-75
2021/08/31 08:55:56;;;;;;;6.13;5.47;;;17.80;99.90;;;;;;5014857;28;20413;-76
2021/08/31 08:58:24;;;;;;;6.53;5.90;;;17.80;99.90;;;;;;5015206;28;20428;-74
2021/08/31 09:00:57;;;;;;;7.33;5.73;;;18.10;99.90;;;;;;5014327;28;20429;-78
2021/08/31 09:03:25;;;;;;;7.50;5.43;;;18.30;99.90;;;;;;5015452;28;20413;-76
2021/08/31 09:06:14;;;;;;;8.80;7.30;;;18.10;99.90;;;;;;5014074;28;20407;-75
2021/08/31 09:08:54;;;;;;;8.20;7.23;;;18.10;99.90;;;;;;5015365;28;20455;-76
2021/08/31 09:11:24;;;;;;;9.67;7.70;;;18.40;99.90;;;;;;5015483;28;20391;-77
2021/08/31 09:14:13;;;;;;;7.73;6.93;;;18.50;99.90;;;;;;5015700;28;20508;-77
2021/08/31 09:16:42;;;;;;;11.60;9.00;;;18.70;99.90;;;;;;4996177;28;20428;-77
2021/08/31 09:19:11;;;;;;;10.83;7.07;;;18.70;99.90;;;;;;4996248;28;20400;-77
2021/08/31 09:21:45;;;;;;;7.10;6.40;;;18.60;99.90;;;;;;4995781;28;20403;-78
2021/08/31 09:24:13;;;;;;;8.70;7.00;;;18.40;99.90;;;;;;4995744;28;20531;-77
2021/08/31 09:26:43;;;;;;;7.87;7.17;;;18.50;99.90;;;;;;4995908;28;20427;-78
2021/08/31 09:29:15;;;;;;;7.27;5.37;;;18.50;99.90;;;;;;4995512;28;20425;-77
2021/08/31 09:31:52;;;;;;;7.60;6.03;;;18.40;99.90;;;;;;4994863;28;20492;-77
2021/08/31 09:34:35;;;;;;;7.40;6.20;;;18.30;99.90;;;;;;5014267;28;20772;-76
2021/08/31 09:37:45;;;;;;;7.13;6.40;;;18.20;99.90;;;;;;5034789;28;20478;-78
2021/08/31 09:40:17;;;;;;;7.83;6.20;;;18.20;99.90;;;;;;5034137;28;20403;-78
2021/08/31 09:42:57;;;;;;;5.50;4.90;;;18.10;99.90;;;;;;5033421;28;20454;-73
2021/08/31 09:45:27;;;;;;;5.93;5.33;;;18.30;99.90;;;;;;5034389;28;20462;-81
2021/08/31 09:47:56;;;;;;;6.77;5.90;;;18.50;99.90;;;;;;5034023;28;20427;-73
2021/08/31 09:50:30;;;;;;;8.10;7.00;;;18.60;99.90;;;;;;5020593;28;20966;-73
2021/08/31 09:53:03;;;;;;;11.00;6.80;;;18.70;99.90;;;;;;5013596;28;20482;-72
2021/08/31 09:55:33;;;;;;;6.23;5.63;;;18.70;99.90;;;;;;5011314;28;20429;-73
2021/08/31 09:58:15;;;;;;;7.17;6.10;;;18.70;99.90;;;;;;4999309;28;20443;-77
2021/08/31 10:00:44;;;;;;;8.03;7.23;;;18.60;99.90;;;;;;5012566;28;20434;-76
2021/08/31 10:03:14;;;;;;;6.20;5.37;;;18.50;99.90;;;;;;5008342;28;20660;-75
2021/08/31 10:05:43;;;;;;;6.87;6.03;;;18.40;99.90;;;;;;4993523;28;20965;-76
2021/08/31 10:08:13;;;;;;;8.33;6.70;;;18.50;99.90;;;;;;4993633;28;20453;-76
2021/08/31 10:10:43;;;;;;;6.60;5.93;;;18.70;99.90;;;;;;4993847;28;20865;-75
2021/08/31 10:13:13;;;;;;;7.53;5.93;;;19.00;99.90;;;;;;4993666;28;20408;-75
2021/08/31 10:15:44;;;;;;;8.13;5.90;;;19.30;99.90;;;;;;5007006;28;20499;-77
2021/08/31 10:18:13;;;;;;;7.77;6.97;;;19.50;99.90;;;;;;5011720;28;20442;-76
2021/08/31 10:20:47;;;;;;;6.60;5.90;;;19.40;99.90;;;;;;5012902;28;20468;-76
2021/08/31 10:23:18;;;;;;;9.17;7.10;;;19.30;99.90;;;;;;5007403;28;20472;-76
2021/08/31 10:25:47;;;;;;;9.00;6.00;;;19.30;99.90;;;;;;5011365;28;20463;-75
2021/08/31 10:28:26;;;;;;;5.80;5.17;;;19.00;99.90;;;;;;5012545;28;20532;-75
2021/08/31 10:30:56;;;;;;;8.93;5.63;;;18.80;99.90;;;;;;4994160;28;21045;-74
2021/08/31 10:33:31;;;;;;;9.77;6.43;;;18.70;99.90;;;;;;5003845;28;20433;-76
2021/08/31 10:36:00;;;;;;;6.60;5.70;;;18.60;99.90;;;;;;5012105;28;20433;-80
2021/08/31 10:38:47;;;;;;;7.50;6.70;;;18.80;99.90;;;;;;5014891;28;20444;-80
2021/08/31 10:41:43;;;;;;;8.67;6.60;;;18.90;99.90;;;;;;5019604;28;20432;-78
2021/08/31 10:44:13;;;;;;;8.33;6.17;;;19.10;99.90;;;;;;5014006;28;20402;-76
2021/08/31 10:47:05;;;;;;;5.93;5.27;;;19.50;99.90;;;;;;5020616;28;20452;-77
2021/08/31 10:50:08;;;;;;;10.57;5.70;;;19.70;99.90;;;;;;5033340;28;20403;-78
2021/08/31 10:52:37;;;;;;;12.40;6.63;;;19.70;99.90;;;;;;5025998;28;20486;-78
2021/08/31 10:55:27;;;;;;;7.07;6.33;;;19.70;99.90;;;;;;5035095;28;20494;-79
2021/08/31 10:57:57;;;;;;;6.30;5.70;;;19.80;99.90;;;;;;5035002;28;20456;-80
2021/08/31 11:00:54;;;;;;;7.87;5.63;;;19.70;99.90;;;;;;5034693;28;20437;-78
2021/08/31 11:03:33;;;;;;;6.27;5.30;;;19.70;99.90;;;;;;4991386;28;20445;-77
2021/08/31 11:06:25;;;;;;;7.97;7.17;;;19.80;99.90;;;;;;5014000;28;20468;-78
2021/08/31 11:09:22;;;;;;;8.73;6.00;;;19.80;99.90;;;;;;5016189;28;20408;-79
2021/08/31 11:12:10;;;;;;;8.73;6.10;;;19.60;99.90;;;;;;5000767;28;20475;-80
2021/08/31 11:14:46;;;;;;;7.00;6.33;;;19.50;99.90;;;;;;5018779;28;20971;-82
2021/08/31 11:17:38;;;;;;;6.80;6.00;;;19.50;99.90;;;;;;5016069;28;20490;-74
2021/08/31 11:20:19;;;;;;;6.50;5.80;;;19.70;99.90;;;;;;5012076;28;20828;-72
2021/08/31 11:22:49;;;;;;;5.70;5.20;;;19.90;99.90;;;;;;5003856;28;20445;-73
2021/08/31 11:25:26;;;;;;;7.93;5.43;;;20.10;99.90;;;;;;5011691;28;20443;-72
2021/08/31 11:27:56;;;;;;;9.50;6.30;;;20.20;99.90;;;;;;5011947;28;20445;-72
2021/08/31 11:30:26;;;;;;;7.23;5.43;;;20.10;99.90;;;;;;5011614;28;20396;-73
2021/08/31 11:33:14;;;;;;;7.43;5.37;;;19.90;99.90;;;;;;5012212;28;20944;-73
2021/08/31 11:35:42;;;;;;;10.00;5.07;;;19.80;99.90;;;;;;5012362;28;20433;-74
2021/08/31 11:38:10;;;;;;;5.50;4.73;;;19.80;99.90;;;;;;5012219;28;20441;-74
2021/08/31 11:40:39;;;;;;;6.03;5.53;;;19.90;99.90;;;;;;5011341;28;20930;-72
2021/08/31 11:43:07;;;;;;;7.53;6.17;;;20.10;99.90;;;;;;5011464;28;20428;-73
2021/08/31 11:45:39;;;;;;;5.33;4.57;;;19.80;99.90;;;;;;5008534;28;20454;-75
2021/08/31 11:48:09;;;;;;;15.03;4.90;;;19.50;99.90;;;;;;5001065;28;20446;-78
2021/08/31 11:50:37;;;;;;;5.93;4.43;;;19.40;99.90;;;;;;4997663;28;20417;-77
2021/08/31 11:53:16;;;;;;;7.50;5.07;;;19.30;99.90;;;;;;4998404;28;20461;-82
2021/08/31 11:55:54;;;;;;;6.10;4.77;;;19.30;99.90;;;;;;5005530;28;20486;-78
2021/08/31 11:58:22;;;;;;;7.17;4.90;;;19.30;99.90;;;;;;4999703;28;20424;-81
2021/08/31 12:00:52;;;;;;;6.87;5.43;;;19.40;99.90;;;;;;5010489;28;20814;-78
2021/08/31 12:03:27;;;;;;;7.67;5.53;;;19.30;99.90;;;;;;5018471;28;20421;-78
2021/08/31 12:05:59;;;;;;;5.63;5.07;;;19.20;99.90;;;;;;4992915;28;20957;-77
2021/08/31 12:08:31;;;;;;;5.87;5.00;;;19.20;99.90;;;;;;4994063;28;20438;-78
2021/08/31 12:11:00;;;;;;;5.63;4.77;;;19.30;99.90;;;;;;5004931;28;20404;-78
2021/08/31 12:13:28;;;;;;;5.53;4.77;;;19.30;99.90;;;;;;5010371;28;20429;-82
2021/08/31 12:16:00;;;;;;;7.07;5.37;;;19.30;99.90;;;;;;5028448;28;20437;-82
2021/08/31 12:18:30;;;;;;;5.67;4.67;;;19.10;99.90;;;;;;5039814;28;20430;-82
2021/08/31 12:21:18;;;;;;;6.07;5.47;;;19.10;99.90;;;;;;5049547;28;20438;-84
2021/08/31 12:23:49;;;;;;;6.30;3.87;;;19.20;99.90;;;;;;5044471;28;20783;-83
2021/08/31 12:26:28;;;;;;;6.30;5.33;;;19.20;99.90;;;;;;5041860;28;20482;-84
2021/08/31 12:29:02;;;;;;;7.03;5.20;;;19.20;99.90;;;;;;5038806;28;20460;-83
2021/08/31 12:31:32;;;;;;;5.70;4.57;;;19.30;99.90;;;;;;5044134;28;20407;-83
2021/08/31 12:34:01;;;;;;;6.67;5.87;;;19.50;99.90;;;;;;5043425;28;20403;-84
2021/08/31 12:36:36;;;;;;;5.50;4.43;;;19.60;99.90;;;;;;5034825;28;20453;-73
2021/08/31 12:39:09;;;;;;;8.27;5.50;;;19.30;99.90;;;;;;5020170;28;20792;-78
2021/08/31 12:41:44;;;;;;;5.10;4.20;;;19.20;99.90;;;;;;5016887;28;20421;-80
2021/08/31 12:44:17;;;;;;;4.83;4.40;;;19.30;99.90;;;;;;5027829;28;20925;-79
2021/08/31 12:46:48;;;;;;;5.80;4.80;;;19.40;99.90;;;;;;5041376;28;20483;-80
2021/08/31 12:49:18;;;;;;;5.67;5.03;;;19.30;99.90;;;;;;5042068;28;20434;-80
2021/08/31 12:51:48;;;;;;;6.70;5.10;;;19.20;99.90;;;;;;5039060;28;20449;-78
2021/08/31 12:54:25;;;;;;;5.30;4.17;;;19.40;99.90;;;;;;5035646;28;20968;-78
2021/08/31 12:56:55;;;;;;;7.50;5.27;;;19.30;99.90;;;;;;5039780;28;20470;-81
2021/08/31 12:59:34;;;;;;;6.20;5.13;;;19.30;99.90;;;;;;5038220;28;20468;-79